Castro Verd, Portugal
Current Conditions -  °F | °C
As of 4:00 PM on Wednesday 28 Jan 2015 (Local Time) from LPBJ Reporting Station
Clear Clear  
Wind Chill: 14°   Ceiling: Unl
Heat Index: 14°   Visibility: 6mi
Dew Point:   Wind: 15mph
Humidity: 59%   Direction: 330°NNW
Pressure: 30.27"   Gusts: NA
Location:  37.7°N, 8.08°W
Report Text: LPBJ 281600Z 33013KT CAVOK 14/06 Q1025
Loading
Personal Weather Stations






























Interactive Weather Map New forecast layout! Learn more

10-Day Weather Forecast

Advertisements
Track Severe Weather on mobile